Georgetown, SC

5:21 PM EST on February 10, 2016 (GMT -0500)
Golden Bear Dr. Pawleys Island | | Change Station
CLOSE
Current Station
Personal Weather Station
Location: Pawleys Island, SC
Elevation: 35 ft
Nearby Weather Stations
Active Advisory: Flood Warning

Elev 35 ft 33.42 °N, 79.14 °W | Updated 10 seconds ago

Partly Cloudy
Partly Cloudy
39.9 °F
Feels Like 40 °F
N
0.4
Wind Variable Wind from WNW
Gusts 2.5 mph

Today
High -- | Low -- °F
--% Chance of Precip.
Yesterday
High -- | Low -- °F
Precip. -- in
Pressure 30.03 in
Visibility 10.0 miles
Clouds Clear
Windchill 40 °F
Dew Point 13 °F
Humidity 33%
Rainfall 0.00 in
Snow Depth Not available.
7:06 AM 5:56 PM
Waxing Crescent, 7% visible
METAR KGGE 102215Z AUTO 28011G24KT 10SM CLR 03/M10 A3003 RMK AO2
Pressure 30.03 in
Visibility 10.0 miles
Clouds Clear
Windchill 40 °F
Dew Point 13 °F
Humidity 33%
Rainfall 0.00 in
Snow Depth Not available.
7:06 AM 5:56 PM
Waxing Crescent, 7% visible
METAR KGGE 102215Z AUTO 28011G24KT 10SM CLR 03/M10 A3003 RMK AO2

10-Day Weather Forecast

Almanac

Astronomy

Feb. 10, 2016 Rise Set
Actual Time
Civil Twilight
Nautical Twilight
Astronomical Twilight
Moon
Length of Visible Light
Length of Day
Tomorrow will be .
, % of the Moon is Illuminated

Today's Extremes

State Highs State Lows

Community

WunderPhotos

Upload Photos

1,891,952 photos uploaded!

WunderBlog® & News

Nearby

Air Quality

  Air Quality AQ Index Pollutant
Not available.

Snow Depth

Station Depth Elevation

Earthquake Activity

City Distance Mag. Time & Date
Minimum magnitude displayed is 2.5.

Coastal Water Temperatures

Place Temperature

Stations

Nearby Weather Stations

Station Location Temp. Windchill Dew Point Humidity Wind Precip. Elev Updated Type
                   

Watches & Warnings

Flood Warning
Issued: 9:39 AM EST Feb. 10, 2016 – National Weather Service

The Flood Warning continues for
the Santee river near Jamestown.
* At 8 am Wednesday the stage was 13.7 feet.
* Flood stage is 10.0 feet.
* Minor flooding is occurring.
* Forecast, the river will rise to near 13.7 feet by this afternoon
then begin a slow fall.
* At 12.0 feet, several dirt logging roads are impassable.


Lat... Lon 3347 8002 3354 7998 3325 7937 3321 7938
          3320 7951 3329 7976